Time;durP1;ratioP1;P1;durP2;ratioP2;P2;SDS_P1;SDS_P2;PMS_P1;PMS_P2;Temp;Humidity;BMP_temperature;BMP_pressure;BME280_temperature;BME280_humidity;BME280_pressure;Samples;Min_cycle;Max_cycle;Signal;HPM_P1;HPM_P2
2023/06/10 00:02:16;;;;;;;19.57;11.80;;;;;;;21.60;53.28;99742.50;5055664;28;20064;-74
2023/06/10 00:04:41;;;;;;;18.15;12.20;;;;;;;21.54;53.33;99742.69;5056539;28;20805;-74
2023/06/10 00:07:08;;;;;;;22.48;10.88;;;;;;;21.54;53.56;99744.66;5055703;28;20021;-74
2023/06/10 00:09:37;;;;;;;20.75;11.13;;;;;;;21.52;53.86;99747.75;5056383;28;20097;-74
2023/06/10 00:12:06;;;;;;;16.77;10.18;;;;;;;21.48;53.73;99743.25;5056128;28;20028;-74
2023/06/10 00:14:33;;;;;;;11.98;8.48;;;;;;;21.42;54.14;99740.66;5055952;28;20041;-74
2023/06/10 00:16:59;;;;;;;14.95;8.68;;;;;;;21.36;54.00;99744.00;5056281;28;20114;-75
2023/06/10 00:19:29;;;;;;;12.30;8.63;;;;;;;21.37;54.04;99742.84;5054905;28;20036;-74
2023/06/10 00:21:55;;;;;;;11.45;8.30;;;;;;;21.39;54.21;99740.53;5055546;28;20075;-74
2023/06/10 00:24:20;;;;;;;15.23;9.40;;;;;;;21.34;54.01;99739.59;5055793;28;20045;-74
2023/06/10 00:26:46;;;;;;;13.73;9.43;;;;;;;21.28;54.59;99737.38;5056290;28;20044;-74
2023/06/10 00:29:11;;;;;;;15.80;10.07;;;;;;;21.26;54.50;99736.88;5055741;28;20029;-74
2023/06/10 00:31:37;;;;;;;15.52;9.52;;;;;;;21.20;54.93;99741.84;5055280;28;20104;-74
2023/06/10 00:34:03;;;;;;;15.70;9.98;;;;;;;21.17;55.22;99739.75;5056054;28;20042;-74
2023/06/10 00:36:29;;;;;;;15.50;11.05;;;;;;;21.10;54.76;99741.09;5055196;28;20075;-74
2023/06/10 00:38:55;;;;;;;17.27;11.02;;;;;;;21.07;55.37;99740.97;5055173;28;20032;-74
2023/06/10 00:41:20;;;;;;;14.77;10.47;;;;;;;21.01;55.44;99743.13;5055614;28;20421;-74
2023/06/10 00:43:45;;;;;;;20.43;10.80;;;;;;;20.97;55.49;99736.63;5055946;28;20154;-74
2023/06/10 00:46:12;;;;;;;14.70;10.10;;;;;;;21.03;55.66;99743.56;5055595;28;20649;-74
2023/06/10 00:48:38;;;;;;;14.50;9.25;;;;;;;21.01;55.62;99743.13;5070008;28;20128;-74
2023/06/10 00:51:05;;;;;;;16.38;9.82;;;;;;;20.91;55.83;99755.34;5055527;28;20116;-75
2023/06/10 00:53:31;;;;;;;13.52;9.90;;;;;;;20.85;56.04;99751.97;5055514;28;20063;-75
2023/06/10 00:55:56;;;;;;;21.55;9.95;;;;;;;20.83;56.07;99759.81;5055360;28;20046;-75
2023/06/10 00:58:23;;;;;;;17.20;9.75;;;;;;;20.82;56.07;99752.66;5054369;28;20033;-74
2023/06/10 01:00:49;;;;;;;16.92;9.18;;;;;;;20.85;56.22;99756.69;5056079;28;20082;-75
2023/06/10 01:03:17;;;;;;;14.60;9.98;;;;;;;20.87;56.09;99748.88;5054726;28;20080;-75
2023/06/10 01:05:43;;;;;;;16.02;9.63;;;;;;;20.81;56.48;99751.03;5054814;28;20043;-75
2023/06/10 01:08:42;;;;;;;16.20;8.88;;;;;;;20.74;56.58;99753.53;5054634;28;20040;-74
2023/06/10 01:11:17;;;;;;;18.10;10.77;;;;;;;20.69;56.95;99746.19;5055055;28;20106;-75
2023/06/10 01:13:45;;;;;;;22.38;10.45;;;;;;;20.68;56.79;99754.84;5054882;28;20048;-75
2023/06/10 01:16:11;;;;;;;14.32;9.85;;;;;;;20.70;56.81;99749.78;5054027;28;20102;-75
2023/06/10 01:18:38;;;;;;;17.50;9.38;;;;;;;20.74;56.59;99759.06;5054400;28;20032;-74
2023/06/10 01:21:04;;;;;;;14.80;9.32;;;;;;;20.69;56.67;99754.50;5055237;28;20107;-74
2023/06/10 01:23:29;;;;;;;19.48;10.80;;;;;;;20.70;56.38;99755.34;5054025;28;20033;-75
2023/06/10 01:26:08;;;;;;;18.75;9.55;;;;;;;20.65;56.57;99757.16;5054577;28;20072;-74
2023/06/10 01:28:58;;;;;;;12.82;8.73;;;;;;;20.61;56.61;99758.13;5053899;28;20040;-74
2023/06/10 01:31:36;;;;;;;17.98;10.18;;;;;;;20.61;57.01;99763.66;5054432;28;20040;-74
2023/06/10 01:34:06;;;;;;;12.07;8.13;;;;;;;20.56;57.26;99750.84;5054498;28;20048;-74
2023/06/10 01:36:32;;;;;;;12.38;8.23;;;;;;;20.52;57.37;99755.44;5054542;28;20033;-75
2023/06/10 01:38:59;;;;;;;14.73;9.30;;;;;;;20.55;57.34;99754.75;5053694;28;20090;-75
2023/06/10 01:41:25;;;;;;;16.38;8.52;;;;;;;20.76;56.43;99754.81;5054281;28;20044;-75
2023/06/10 01:43:51;;;;;;;15.63;9.52;;;;;;;20.76;56.32;99759.53;5054170;28;20032;-75
2023/06/10 01:46:19;;;;;;;16.63;9.60;;;;;;;20.59;57.04;99768.72;5054475;28;20036;-74
2023/06/10 01:48:44;;;;;;;19.02;9.65;;;;;;;20.42;57.57;99765.72;5054911;28;20253;-75
2023/06/10 01:51:10;;;;;;;14.50;9.47;;;;;;;20.38;57.80;99763.97;5054093;28;20549;-75
2023/06/10 01:53:35;;;;;;;14.97;10.20;;;;;;;20.32;58.16;99760.53;5054031;28;20303;-74
2023/06/10 01:56:00;;;;;;;15.20;9.27;;;;;;;20.25;58.75;99763.00;5054052;28;20052;-75
2023/06/10 01:58:25;;;;;;;15.67;9.40;;;;;;;20.23;58.87;99759.75;5052539;28;20063;-74
2023/06/10 02:00:51;;;;;;;15.33;8.73;;;;;;;20.19;59.07;99765.16;5054658;28;20293;-75
2023/06/10 02:03:16;;;;;;;18.43;9.80;;;;;;;20.21;58.99;99760.09;5054574;28;20057;-74
2023/06/10 02:05:41;;;;;;;20.05;9.20;;;;;;;20.16;59.12;99761.09;5054546;28;20323;-75
2023/06/10 02:08:06;;;;;;;17.27;9.90;;;;;;;20.12;59.54;99760.13;5054661;28;20036;-74
2023/06/10 02:10:32;;;;;;;14.43;10.60;;;;;;;20.09;59.53;99758.03;5054230;28;20049;-75
2023/06/10 02:12:57;;;;;;;12.63;9.37;;;;;;;20.06;59.74;99761.41;5055531;28;20750;-75
2023/06/10 02:15:22;;;;;;;15.43;10.18;;;;;;;20.07;59.71;99760.28;5054357;28;20269;-74
2023/06/10 02:17:49;;;;;;;19.57;10.50;;;;;;;20.05;60.07;99766.16;5053376;28;20043;-75
2023/06/10 02:20:14;;;;;;;15.57;10.65;;;;;;;19.97;59.99;99768.91;5052169;28;21123;-74
2023/06/10 02:22:39;;;;;;;15.07;9.90;;;;;;;20.05;59.92;99765.31;5054224;28;20038;-75
2023/06/10 02:25:05;;;;;;;12.90;9.83;;;;;;;20.03;60.15;99767.59;5053725;28;20409;-74
2023/06/10 02:27:31;;;;;;;14.13;9.30;;;;;;;19.97;60.20;99772.50;5053199;28;20090;-75
2023/06/10 02:29:57;;;;;;;17.02;10.20;;;;;;;19.92;60.42;99772.66;5053521;28;20120;-74
2023/06/10 02:32:22;;;;;;;18.88;10.85;;;;;;;19.90;60.56;99764.69;5053275;28;20553;-74
2023/06/10 02:34:51;;;;;;;12.45;9.23;;;;;;;19.89;60.65;99771.34;5053742;28;20032;-75
2023/06/10 02:37:16;;;;;;;15.50;10.93;;;;;;;19.84;60.66;99768.78;5053608;28;20061;-74
2023/06/10 02:39:42;;;;;;;12.98;9.63;;;;;;;19.82;60.78;99762.75;5053250;28;20060;-75
2023/06/10 02:42:07;;;;;;;14.23;10.32;;;;;;;19.82;60.90;99765.53;5053715;28;20048;-75
2023/06/10 02:44:33;;;;;;;14.05;9.55;;;;;;;19.75;61.11;99771.53;5058130;28;20601;-74
2023/06/10 02:46:58;;;;;;;17.67;10.48;;;;;;;19.81;60.66;99773.00;5059842;28;20091;-75
2023/06/10 02:49:23;;;;;;;13.90;10.75;;;;;;;19.83;60.99;99775.47;5059322;28;20747;-74
2023/06/10 02:51:53;;;;;;;14.57;10.53;;;;;;;19.78;61.29;99773.66;5059690;28;21319;-74
2023/06/10 02:54:18;;;;;;;16.10;10.77;;;;;;;19.75;61.03;99773.53;5060951;28;20036;-75
2023/06/10 02:56:43;;;;;;;17.33;10.50;;;;;;;19.70;61.28;99771.72;5059854;28;20033;-75
2023/06/10 02:59:09;;;;;;;15.60;10.53;;;;;;;19.74;61.31;99771.88;5060327;28;20037;-74
2023/06/10 03:01:36;;;;;;;18.37;11.87;;;;;;;19.68;61.38;99765.72;5060208;28;20045;-75
2023/06/10 03:04:03;;;;;;;15.23;10.25;;;;;;;19.70;61.54;99771.72;5059385;28;20290;-74
2023/06/10 03:06:29;;;;;;;15.77;10.50;;;;;;;19.68;61.50;99772.06;5059777;28;20082;-75
2023/06/10 03:08:54;;;;;;;16.27;10.40;;;;;;;19.69;61.74;99768.13;5060797;28;20496;-74
2023/06/10 03:11:20;;;;;;;14.17;10.23;;;;;;;19.59;61.76;99772.06;5059911;28;20136;-74
2023/06/10 03:13:45;;;;;;;17.55;11.55;;;;;;;19.53;61.92;99762.28;5059675;28;20033;-75
2023/06/10 03:16:12;;;;;;;18.90;11.07;;;;;;;19.65;61.87;99775.47;5059912;28;20097;-74
2023/06/10 03:18:37;;;;;;;22.65;11.30;;;;;;;19.65;61.88;99769.13;5059452;28;20126;-74
2023/06/10 03:21:03;;;;;;;18.48;11.77;;;;;;;19.69;61.43;99770.91;5059298;28;20040;-75
2023/06/10 03:23:28;;;;;;;14.43;10.27;;;;;;;19.66;61.69;99771.56;5058984;28;20033;-74
2023/06/10 03:25:54;;;;;;;16.02;11.68;;;;;;;19.78;61.35;99770.09;5059908;28;20036;-73
2023/06/10 03:28:21;;;;;;;16.02;10.55;;;;;;;19.65;61.82;99767.16;5059573;28;20556;-75
2023/06/10 03:30:47;;;;;;;14.45;10.43;;;;;;;19.63;62.02;99763.91;5059638;28;20524;-74
2023/06/10 03:33:12;;;;;;;17.30;10.88;;;;;;;19.61;62.47;99768.94;5059537;28;20044;-74
2023/06/10 03:35:38;;;;;;;15.52;10.55;;;;;;;19.62;61.98;99770.59;5059953;28;20139;-74
2023/06/10 03:38:04;;;;;;;16.50;11.03;;;;;;;19.60;62.21;99778.41;5059692;28;20135;-74
2023/06/10 03:40:31;;;;;;;15.07;10.53;;;;;;;19.67;61.60;99778.72;5059457;28;20296;-74
2023/06/10 03:42:56;;;;;;;15.25;9.90;;;;;;;19.64;61.80;99773.84;5060453;28;20113;-74
2023/06/10 03:45:21;;;;;;;15.80;11.10;;;;;;;19.54;62.21;99783.28;5059613;28;20025;-74
2023/06/10 03:47:47;;;;;;;16.50;10.67;;;;;;;19.52;62.59;99793.03;5059778;28;20055;-74
2023/06/10 03:50:13;;;;;;;16.88;11.48;;;;;;;19.54;62.51;99785.22;5058773;28;20561;-74
2023/06/10 03:52:39;;;;;;;15.07;10.57;;;;;;;19.56;62.48;99794.84;5060047;28;20119;-74
2023/06/10 03:55:05;;;;;;;18.23;11.30;;;;;;;19.59;62.36;99791.41;5059153;28;20131;-73
2023/06/10 03:57:30;;;;;;;18.13;10.50;;;;;;;19.68;62.24;99785.88;5056072;28;20123;-74
2023/06/10 03:59:56;;;;;;;15.27;10.60;;;;;;;19.60;62.38;99789.47;5056044;28;20029;-75
2023/06/10 04:02:22;;;;;;;18.50;12.30;;;;;;;19.60;62.38;99790.28;5055908;28;20282;-74
2023/06/10 04:04:48;;;;;;;19.20;13.20;;;;;;;19.59;62.54;99793.34;5056718;28;20484;-74
2023/06/10 04:07:13;;;;;;;20.77;13.60;;;;;;;19.67;62.34;99784.25;5056138;28;20128;-74
2023/06/10 04:09:39;;;;;;;24.95;14.95;;;;;;;19.78;62.10;99794.97;5055307;28;20127;-74
2023/06/10 04:12:08;;;;;;;20.75;13.60;;;;;;;19.75;62.10;99795.66;5055783;28;20033;-73
2023/06/10 04:14:34;;;;;;;16.30;12.80;;;;;;;19.64;62.59;99804.25;5056053;28;20098;-74
2023/06/10 04:16:59;;;;;;;19.63;12.23;;;;;;;19.60;62.84;99792.22;5056621;28;20474;-74
2023/06/10 04:19:24;;;;;;;19.10;11.75;;;;;;;19.53;63.19;99806.53;5056212;28;20033;-74
2023/06/10 04:21:49;;;;;;;15.73;11.05;;;;;;;19.55;63.48;99798.72;5056447;28;20131;-74
2023/06/10 04:24:15;;;;;;;18.33;12.48;;;;;;;19.51;63.55;99800.50;5056181;28;20037;-74
2023/06/10 04:26:40;;;;;;;20.23;12.23;;;;;;;19.60;63.27;99806.88;5056068;28;20032;-74
2023/06/10 04:29:05;;;;;;;20.57;12.23;;;;;;;19.53;63.47;99811.25;5056897;28;20304;-75
2023/06/10 04:31:32;;;;;;;20.13;14.33;;;;;;;19.48;64.17;99807.53;5055584;28;20056;-74
2023/06/10 04:33:57;;;;;;;23.05;13.07;;;;;;;19.44;63.91;99814.00;5056651;28;20261;-74
2023/06/10 04:36:23;;;;;;;14.00;10.18;;;;;;;19.61;63.48;99804.91;5056045;28;20394;-75
2023/06/10 04:38:48;;;;;;;17.02;10.80;;;;;;;19.57;63.66;99807.50;5056326;28;20050;-74
2023/06/10 04:41:14;;;;;;;15.70;10.90;;;;;;;19.54;64.12;99807.34;5055171;28;20040;-75
2023/06/10 04:43:39;;;;;;;21.53;11.80;;;;;;;19.56;63.82;99805.06;5057088;28;20036;-74
2023/06/10 04:46:04;;;;;;;17.17;11.30;;;;;;;19.60;64.07;99811.59;5055718;28;20032;-74
2023/06/10 04:48:30;;;;;;;18.80;11.40;;;;;;;19.58;64.04;99800.03;5054996;28;20029;-75
2023/06/10 04:50:56;;;;;;;21.92;13.55;;;;;;;19.58;64.45;99800.84;5055095;28;20040;-74
2023/06/10 04:53:22;;;;;;;17.95;11.90;;;;;;;19.63;63.99;99805.38;5055662;28;20100;-74
2023/06/10 04:55:48;;;;;;;19.13;13.73;;;;;;;19.70;63.65;99811.25;5055240;28;20071;-76
2023/06/10 04:58:13;;;;;;;21.60;12.63;;;;;;;19.66;63.94;99812.22;5054994;28;20039;-75
2023/06/10 05:00:38;;;;;;;19.10;11.90;;;;;;;19.66;63.85;99810.28;5055778;28;21209;-75
2023/06/10 05:03:03;;;;;;;20.23;12.73;;;;;;;19.66;63.83;99806.69;5055560;28;20107;-74
2023/06/10 05:05:29;;;;;;;19.87;12.93;;;;;;;19.64;63.92;99812.56;5054967;28;20273;-74
2023/06/10 05:07:54;;;;;;;18.23;12.50;;;;;;;19.67;63.73;99806.38;5055128;28;20824;-75
2023/06/10 05:10:19;;;;;;;20.97;11.77;;;;;;;19.58;63.92;99808.31;5055044;28;20061;-76
2023/06/10 05:12:45;;;;;;;19.87;12.87;;;;;;;19.56;64.16;99805.91;5055513;28;20045;-75
2023/06/10 05:15:10;;;;;;;17.20;11.27;;;;;;;19.69;63.33;99803.25;5054683;28;20090;-76
2023/06/10 05:17:35;;;;;;;17.67;11.27;;;;;;;19.77;63.50;99810.75;5055017;28;20032;-74
2023/06/10 05:20:02;;;;;;;18.65;10.38;;;;;;;19.75;63.58;99804.72;5053998;28;20072;-74
2023/06/10 05:22:27;;;;;;;18.08;10.80;;;;;;;19.73;63.99;99814.50;5054497;28;20037;-75
2023/06/10 05:24:53;;;;;;;17.17;12.13;;;;;;;19.65;63.77;99810.63;5054859;28;20744;-75
2023/06/10 05:27:18;;;;;;;19.25;13.40;;;;;;;19.80;63.08;99820.34;5054765;28;20261;-75
2023/06/10 05:29:45;;;;;;;19.63;12.88;;;;;;;19.85;63.10;99814.66;5055448;28;20079;-75
2023/06/10 05:32:10;;;;;;;18.92;10.68;;;;;;;19.92;62.93;99805.84;5055072;28;20123;-75
2023/06/10 05:34:35;;;;;;;17.00;12.05;;;;;;;20.01;62.80;99805.84;5054904;28;20139;-75
2023/06/10 05:37:01;;;;;;;17.17;10.93;;;;;;;20.13;62.57;99813.50;5054516;28;20052;-74
2023/06/10 05:39:26;;;;;;;17.53;12.17;;;;;;;20.17;62.14;99800.66;5054236;28;20021;-75
2023/06/10 05:41:51;;;;;;;18.37;10.13;;;;;;;20.36;61.39;99808.56;5054144;28;20121;-75
2023/06/10 05:44:16;;;;;;;17.80;11.50;;;;;;;20.36;61.56;99808.56;5054407;28;20032;-75
2023/06/10 05:46:42;;;;;;;23.17;11.63;;;;;;;20.35;62.20;99806.94;5054444;28;20327;-75
2023/06/10 05:49:07;;;;;;;17.15;11.88;;;;;;;20.27;62.21;99810.53;5053838;28;20441;-74
2023/06/10 05:51:32;;;;;;;17.67;10.93;;;;;;;20.44;61.74;99820.78;5054624;28;20032;-75
2023/06/10 05:53:57;;;;;;;16.97;11.73;;;;;;;20.38;62.40;99816.56;5053950;28;20254;-75
2023/06/10 05:56:23;;;;;;;15.68;10.73;;;;;;;20.35;62.67;99815.25;5054228;28;20158;-75
2023/06/10 05:58:49;;;;;;;18.95;10.93;;;;;;;20.61;61.04;99819.06;5053743;28;20025;-75
2023/06/10 06:01:15;;;;;;;17.70;11.80;;;;;;;20.57;60.91;99818.91;5054222;28;20563;-75
2023/06/10 06:03:40;;;;;;;16.80;11.82;;;;;;;20.47;62.00;99825.63;5053893;28;20045;-75
2023/06/10 06:06:05;;;;;;;17.25;11.43;;;;;;;20.42;61.98;99812.78;5053484;28;20043;-76
2023/06/10 06:08:31;;;;;;;17.85;11.32;;;;;;;20.46;62.29;99817.66;5053839;28;20127;-76
2023/06/10 06:10:56;;;;;;;14.80;9.33;;;;;;;20.41;61.65;99816.69;5054674;28;20028;-76
2023/06/10 06:13:21;;;;;;;18.92;11.30;;;;;;;20.40;61.91;99815.06;5054749;28;20730;-76
2023/06/10 06:15:47;;;;;;;17.27;10.05;;;;;;;20.38;61.93;99822.88;5054181;28;20082;-77
2023/06/10 06:18:12;;;;;;;12.48;8.95;;;;;;;20.44;61.40;99823.53;5052217;28;20033;-76
2023/06/10 06:20:37;;;;;;;17.93;10.80;;;;;;;20.57;61.18;99823.63;5053633;28;20036;-76
2023/06/10 06:23:03;;;;;;;22.48;10.70;;;;;;;20.58;61.23;99817.78;5052926;28;21509;-76
2023/06/10 06:25:28;;;;;;;16.75;10.63;;;;;;;20.71;60.70;99828.94;5052824;28;20036;-76
2023/06/10 06:27:53;;;;;;;16.13;10.63;;;;;;;20.74;60.13;99817.22;5054235;28;20457;-76
2023/06/10 06:30:19;;;;;;;13.60;9.25;;;;;;;20.91;59.35;99816.31;5053863;28;20036;-76
2023/06/10 06:32:44;;;;;;;15.23;9.32;;;;;;;20.83;59.52;99820.75;5053895;28;20033;-76
2023/06/10 06:35:09;;;;;;;16.97;8.17;;;;;;;20.87;59.38;99821.72;5052746;28;20051;-76
2023/06/10 06:37:35;;;;;;;13.05;8.68;;;;;;;20.92;59.40;99820.72;5053736;28;20554;-75
2023/06/10 06:40:00;;;;;;;17.80;9.23;;;;;;;21.09;58.32;99825.38;5053511;28;20043;-75
2023/06/10 06:42:26;;;;;;;13.27;8.15;;;;;;;21.16;57.94;99826.81;5052893;28;20037;-76
2023/06/10 06:44:51;;;;;;;12.03;8.47;;;;;;;21.19;57.94;99826.97;5053298;28;20108;-76
2023/06/10 06:47:19;;;;;;;16.93;8.93;;;;;;;21.23;57.61;99829.88;5054633;28;20032;-76
2023/06/10 06:49:47;;;;;;;14.27;8.38;;;;;;;21.30;57.38;99832.91;5053083;28;20273;-77
2023/06/10 06:52:13;;;;;;;11.52;7.65;;;;;;;21.32;57.18;99835.34;5069166;28;20036;-75
2023/06/10 06:54:39;;;;;;;11.95;8.05;;;;;;;21.34;56.69;99828.31;5054867;28;20051;-75
2023/06/10 06:57:05;;;;;;;18.40;8.40;;;;;;;21.31;57.31;99834.53;5052549;28;20037;-76
2023/06/10 06:59:31;;;;;;;19.05;9.35;;;;;;;21.32;56.44;99832.56;5052844;28;20040;-76
2023/06/10 07:01:56;;;;;;;11.98;7.22;;;;;;;21.33;56.94;99836.97;5053367;28;20045;-75
2023/06/10 07:04:21;;;;;;;13.00;8.10;;;;;;;21.42;56.16;99828.56;5053573;28;20040;-76
2023/06/10 07:06:48;;;;;;;11.13;7.15;;;;;;;21.48;56.07;99837.53;5052708;28;21486;-76
2023/06/10 07:09:13;;;;;;;9.35;6.40;;;;;;;21.52;55.88;99832.94;5053238;28;20576;-75
2023/06/10 07:11:38;;;;;;;10.65;6.93;;;;;;;21.59;55.37;99833.19;5053766;28;20036;-75
2023/06/10 07:14:04;;;;;;;13.02;7.47;;;;;;;21.63;55.30;99839.69;5053402;28;20098;-76
2023/06/10 07:16:29;;;;;;;21.58;7.82;;;;;;;21.70;55.11;99845.50;5052591;28;20037;-76
2023/06/10 07:18:55;;;;;;;11.60;6.87;;;;;;;21.69;54.98;99837.53;5053347;28;20439;-76
2023/06/10 07:21:20;;;;;;;16.42;7.82;;;;;;;21.73;55.50;99840.41;5053692;28;20028;-76
2023/06/10 07:23:46;;;;;;;16.90;8.10;;;;;;;21.81;55.37;99839.53;5054412;28;20111;-76
2023/06/10 07:26:13;;;;;;;11.90;6.68;;;;;;;21.75;55.75;99838.13;5053030;28;20143;-75
2023/06/10 07:28:39;;;;;;;16.17;7.10;;;;;;;21.89;54.18;99840.63;5052189;28;20036;-76
2023/06/10 07:31:04;;;;;;;10.82;6.43;;;;;;;21.88;54.92;99836.25;5054783;28;20122;-76
2023/06/10 07:33:30;;;;;;;11.13;7.20;;;;;;;21.96;54.51;99832.59;5057557;28;20044;-76
2023/06/10 07:35:55;;;;;;;13.53;7.03;;;;;;;22.00;54.20;99830.75;5056987;28;20041;-76
2023/06/10 07:38:20;;;;;;;11.13;7.22;;;;;;;21.99;54.52;99823.56;5056526;28;20274;-75
2023/06/10 07:40:46;;;;;;;17.93;7.50;;;;;;;22.09;54.18;99822.31;5055443;28;20469;-76
2023/06/10 07:43:11;;;;;;;12.27;7.05;;;;;;;22.16;53.84;99827.34;5055059;28;20273;-76
2023/06/10 07:45:36;;;;;;;10.03;6.73;;;;;;;22.22;54.15;99822.38;5055612;28;20041;-71
2023/06/10 07:48:02;;;;;;;12.45;6.68;;;;;;;22.27;54.12;99834.06;5055027;28;20634;-71
2023/06/10 07:50:27;;;;;;;14.20;8.00;;;;;;;22.33;53.95;99836.63;5055430;28;20047;-71
2023/06/10 07:52:52;;;;;;;9.97;6.50;;;;;;;22.37;53.23;99830.03;5054973;28;20732;-72
2023/06/10 07:55:18;;;;;;;11.68;7.97;;;;;;;22.45;53.21;99831.13;5055000;28;20044;-73
2023/06/10 07:57:43;;;;;;;11.38;6.03;;;;;;;22.48;52.92;99835.97;5055079;28;20082;-73
2023/06/10 08:00:09;;;;;;;10.37;6.10;;;;;;;22.48;52.38;99838.75;5055075;28;20024;-73
2023/06/10 08:02:34;;;;;;;12.13;6.68;;;;;;;22.53;52.72;99828.56;5054771;28;20143;-73
2023/06/10 08:04:59;;;;;;;14.93;7.37;;;;;;;22.57;52.80;99832.28;5055244;28;20037;-74
2023/06/10 08:07:25;;;;;;;14.40;6.87;;;;;;;22.64;51.96;99846.41;5055099;28;20694;-73
2023/06/10 08:09:50;;;;;;;13.48;6.25;;;;;;;22.68;51.23;99847.34;5054523;28;20061;-73
2023/06/10 08:12:16;;;;;;;15.43;7.15;;;;;;;22.70;51.71;99838.69;5055105;28;20041;-73
2023/06/10 08:14:41;;;;;;;10.77;6.93;;;;;;;22.71;52.24;99843.91;5054468;28;20036;-73
2023/06/10 08:17:06;;;;;;;10.97;6.33;;;;;;;22.80;52.07;99843.00;5055012;28;20028;-74
2023/06/10 08:19:32;;;;;;;11.55;6.65;;;;;;;22.86;51.88;99847.94;5054471;28;20043;-74
2023/06/10 08:21:57;;;;;;;15.00;6.87;;;;;;;22.91;51.83;99846.91;5055268;28;20371;-73
2023/06/10 08:24:22;;;;;;;13.97;6.93;;;;;;;22.91;50.87;99849.69;5055291;28;20261;-74
2023/06/10 08:26:47;;;;;;;12.60;6.50;;;;;;;23.02;51.61;99849.22;5054832;28;20045;-75
2023/06/10 08:29:13;;;;;;;12.60;6.30;;;;;;;23.04;51.90;99849.69;5054136;28;20269;-73
2023/06/10 08:31:42;;;;;;;9.73;6.30;;;;;;;23.12;52.22;99847.94;5054096;28;20040;-73
2023/06/10 08:34:08;;;;;;;22.80;6.35;;;;;;;23.25;51.34;99854.31;5054677;28;20039;-76
2023/06/10 08:36:33;;;;;;;11.45;7.18;;;;;;;23.33;51.79;99853.34;5053860;28;20033;-76
2023/06/10 08:38:58;;;;;;;11.80;7.37;;;;;;;23.38;50.84;99853.13;5053992;28;20041;-74
2023/06/10 08:41:26;;;;;;;14.10;7.13;;;;;;;23.41;48.71;99849.63;5053808;28;20827;-73
2023/06/10 08:44:07;;;;;;;14.35;7.07;;;;;;;23.52;48.85;99860.31;5054141;28;20379;-75
2023/06/10 08:46:33;;;;;;;15.75;7.68;;;;;;;23.52;49.73;99855.56;5053942;28;20147;-74
2023/06/10 08:49:03;;;;;;;11.27;5.80;;;;;;;23.61;49.72;99852.66;5053699;28;20056;-74
2023/06/10 08:51:30;;;;;;;10.93;6.82;;;;;;;23.71;48.94;99853.31;5054052;28;20060;-74
2023/06/10 08:54:02;;;;;;;10.50;6.13;;;;;;;23.78;48.95;99850.72;5053898;28;20043;-75
2023/06/10 08:56:29;;;;;;;10.52;6.65;;;;;;;23.92;49.74;99855.09;5054180;28;20093;-75
2023/06/10 08:58:56;;;;;;;11.75;7.32;;;;;;;24.05;49.36;99847.50;5053609;28;20036;-77
2023/06/10 09:01:23;;;;;;;11.18;6.05;;;;;;;24.10;47.69;99848.03;5053962;28;20032;-74
2023/06/10 09:03:49;;;;;;;11.10;6.93;;;;;;;24.23;47.04;99843.25;5053851;28;20456;-74
2023/06/10 09:06:15;;;;;;;11.60;6.97;;;;;;;24.28;49.22;99838.59;5053942;28;20466;-74
2023/06/10 09:08:41;;;;;;;13.07;7.05;;;;;;;24.38;48.50;99832.50;5053660;28;20136;-73
2023/06/10 09:11:07;;;;;;;10.40;6.03;;;;;;;24.42;48.13;99832.59;5053880;28;20032;-75
2023/06/10 09:13:32;;;;;;;17.67;6.50;;;;;;;24.54;47.97;99828.91;5054003;28;20043;-75
2023/06/10 09:16:00;;;;;;;15.20;7.30;;;;;;;24.57;48.36;99834.56;5053566;28;20045;-75
2023/06/10 09:18:27;;;;;;;12.18;6.15;;;;;;;24.69;48.45;99830.88;5053336;28;20053;-74
2023/06/10 09:20:52;;;;;;;30.10;8.00;;;;;;;24.80;47.59;99831.16;5053387;28;20397;-75
2023/06/10 09:23:18;;;;;;;18.17;8.53;;;;;;;24.83;47.34;99829.63;5053745;28;20037;-79
2023/06/10 09:25:43;;;;;;;9.85;5.75;;;;;;;24.89;47.66;99827.38;5053758;28;20396;-75
2023/06/10 09:28:15;;;;;;;15.90;6.80;;;;;;;24.96;47.83;99827.56;5053663;28;20509;-75
2023/06/10 10:53:33;;;;;;;22.42;7.60;;;;;;;25.32;47.93;99805.28;5080233;27;20393;-74
2023/06/10 10:56:10;;;;;;;19.60;8.02;;;;;;;25.55;47.40;99804.53;5079729;28;20493;-82
2023/06/10 10:58:35;;;;;;;9.15;6.53;;;;;;;25.83;46.29;99806.31;5080977;28;20557;-83
2023/06/10 11:01:10;;;;;;;13.80;6.93;;;;;;;26.11;44.91;99799.69;5080966;28;20111;-82
2023/06/10 11:03:44;;;;;;;11.27;8.05;;;;;;;26.38;44.07;99804.53;5080993;28;20253;-82
2023/06/10 11:06:12;;;;;;;;;;;;;;;26.55;43.99;99800.47;5081145;28;20024;-82
2023/06/10 11:08:46;;;;;;;13.98;7.53;;;;;;;26.68;43.80;99792.69;5078111;28;19929;-82
2023/06/10 11:11:20;;;;;;;11.25;6.70;;;;;;;26.84;43.62;99788.91;5079847;28;20071;-82
2023/06/10 11:14:01;;;;;;;12.10;6.45;;;;;;;26.96;43.34;99798.28;5078897;28;20081;-82
2023/06/10 11:16:29;;;;;;;28.13;8.85;;;;;;;26.97;43.08;99785.91;5079512;28;20392;-82
2023/06/10 11:18:55;;;;;;;12.40;7.20;;;;;;;27.04;42.87;99791.59;5078499;28;20123;-73
2023/06/10 11:21:24;;;;;;;12.82;7.80;;;;;;;27.14;43.08;99784.56;5080483;28;20407;-83
2023/06/10 11:23:50;;;;;;;13.75;8.25;;;;;;;27.18;43.09;99791.03;5080023;28;20119;-75
2023/06/10 11:26:31;;;;;;;20.52;9.35;;;;;;;27.33;42.49;99785.63;5079439;28;20043;-76
2023/06/10 11:28:56;;;;;;;11.40;6.65;;;;;;;27.42;42.11;99776.94;5079269;28;20043;-75
2023/06/10 11:31:26;;;;;;;14.83;7.30;;;;;;;27.51;41.27;99777.44;5079165;28;20536;-75
2023/06/10 11:33:53;;;;;;;9.38;6.60;;;;;;;27.62;39.95;99778.38;5079465;28;20020;-75
2023/06/10 11:36:19;;;;;;;12.23;6.55;;;;;;;27.69;40.90;99774.06;5079010;28;20063;-75
2023/06/10 11:38:44;;;;;;;9.02;6.13;;;;;;;27.66;40.59;99780.44;5078881;28;20202;-75
2023/06/10 11:41:11;;;;;;;9.80;6.68;;;;;;;27.69;41.02;99774.88;5079324;28;20060;-75
2023/06/10 11:43:37;;;;;;;10.05;6.97;;;;;;;27.72;40.32;99773.31;5079314;28;20035;-74
2023/06/10 11:46:02;;;;;;;13.02;6.65;;;;;;;27.84;39.25;99770.28;5079062;28;20040;-74
2023/06/10 11:48:31;;;;;;;23.00;7.77;;;;;;;27.77;39.51;99781.38;5078705;28;20043;-74
2023/06/10 11:50:56;;;;;;;10.20;6.97;;;;;;;27.53;40.17;99775.09;5078889;28;20169;-75
2023/06/10 11:53:21;;;;;;;13.53;7.10;;;;;;;27.13;41.28;99778.16;5078344;28;20506;-74
2023/06/10 11:55:50;;;;;;;11.63;6.90;;;;;;;27.09;40.99;99777.34;5078870;28;20338;-75
2023/06/10 11:58:22;;;;;;;9.88;6.43;;;;;;;27.38;40.43;99776.88;5078463;28;20036;-74
2023/06/10 12:01:01;;;;;;;13.48;8.18;;;;;;;27.56;39.81;99774.31;5078585;28;20024;-74
2023/06/10 12:03:35;;;;;;;15.57;7.90;;;;;;;27.71;39.66;99761.28;5073566;28;20036;-74
2023/06/10 12:06:02;;;;;;;38.53;10.25;;;;;;;27.87;39.71;99757.47;5066112;28;20056;-82
2023/06/10 12:08:28;;;;;;;12.63;7.28;;;;;;;27.92;39.43;99762.75;5064695;28;20115;-72
2023/06/10 12:10:54;;;;;;;10.20;6.88;;;;;;;28.01;38.78;99751.22;5065205;28;20100;-72
2023/06/10 12:13:19;;;;;;;24.40;8.25;;;;;;;28.08;38.55;99761.69;5064861;28;20033;-72
2023/06/10 12:15:47;;;;;;;11.07;7.03;;;;;;;28.15;38.52;99766.56;5064571;28;20161;-72
2023/06/10 12:18:20;;;;;;;12.77;7.22;;;;;;;28.20;38.97;99755.00;5064518;28;20469;-71
2023/06/10 12:20:46;;;;;;;11.27;7.07;;;;;;;28.25;38.45;99748.22;5065020;28;20064;-71
2023/06/10 12:23:12;;;;;;;12.27;6.78;;;;;;;28.26;38.57;99753.44;5064812;28;20996;-77
2023/06/10 12:25:38;;;;;;;14.30;8.02;;;;;;;28.29;39.05;99754.69;5064397;28;20044;-72
2023/06/10 12:28:04;;;;;;;12.27;7.03;;;;;;;28.35;38.60;99741.91;5064248;28;20047;-72
2023/06/10 12:30:29;;;;;;;12.18;7.85;;;;;;;28.48;37.83;99739.63;5064474;28;20040;-73
2023/06/10 12:32:56;;;;;;;14.05;7.55;;;;;;;28.62;37.72;99733.31;5064448;28;20041;-72
2023/06/10 12:35:27;;;;;;;12.95;7.20;;;;;;;28.59;38.20;99744.50;5064326;28;20051;-73
2023/06/10 12:38:06;;;;;;;19.55;7.35;;;;;;;28.60;37.31;99740.53;5064547;28;20108;-73
2023/06/10 12:40:33;;;;;;;11.45;7.70;;;;;;;28.65;37.08;99737.34;5064327;28;20122;-72
2023/06/10 12:43:00;;;;;;;9.65;6.97;;;;;;;28.69;37.63;99738.19;5064377;28;20059;-69